Time;durP1;ratioP1;P1;durP2;ratioP2;P2;SDS_P1;SDS_P2;PMS_P1;PMS_P2;Temp;Humidity;BMP_temperature;BMP_pressure;BME280_temperature;BME280_humidity;BME280_pressure;Samples;Min_cycle;Max_cycle;Signal;HPM_P1;HPM_P2
2022/04/09 00:00:59;;;;;;;6.45;1.30;;;4.50;99.90;;;;;;7316027;32;20163;-60
2022/04/09 00:05:01;;;;;;;8.38;1.73;;;4.50;99.90;;;;;;7310519;32;20115;-60
2022/04/09 00:09:02;;;;;;;7.62;1.58;;;4.60;99.90;;;;;;7314332;32;20252;-60
2022/04/09 00:13:04;;;;;;;9.88;1.60;;;4.60;99.90;;;;;;7314850;32;20190;-60
2022/04/09 00:17:08;;;;;;;12.02;1.60;;;4.50;99.90;;;;;;7320164;32;20115;-59
2022/04/09 00:21:10;;;;;;;5.28;1.62;;;4.40;99.90;;;;;;7327801;32;20413;-60
2022/04/09 00:25:14;;;;;;;8.70;1.58;;;4.40;99.90;;;;;;7317164;32;20129;-59
2022/04/09 00:29:16;;;;;;;13.98;2.37;;;4.40;99.90;;;;;;7319412;32;20868;-59
2022/04/09 00:33:18;;;;;;;7.97;1.87;;;4.40;99.90;;;;;;7322121;32;20111;-59
2022/04/09 00:37:20;;;;;;;5.12;1.67;;;4.40;99.90;;;;;;7318954;32;20214;-59
2022/04/09 00:41:21;;;;;;;6.78;1.73;;;4.20;99.90;;;;;;7320247;32;20240;-60
2022/04/09 00:45:23;;;;;;;11.50;2.17;;;4.20;99.90;;;;;;7318745;32;20833;-60
2022/04/09 00:49:28;;;;;;;8.90;2.17;;;4.10;99.90;;;;;;7320734;32;20122;-59
2022/04/09 00:53:41;;;;;;;9.90;2.08;;;4.00;99.90;;;;;;7319671;32;20104;-60
2022/04/09 00:57:45;;;;;;;10.68;2.58;;;4.00;99.90;;;;;;7314247;32;20229;-59
2022/04/09 01:01:48;;;;;;;11.90;2.25;;;4.00;99.90;;;;;;7321057;32;20142;-60
2022/04/09 01:05:50;;;;;;;12.63;2.10;;;3.90;99.90;;;;;;7307982;32;20591;-60
2022/04/09 01:09:52;;;;;;;12.63;2.60;;;3.80;99.90;;;;;;7317438;32;20209;-59
2022/04/09 01:13:53;;;;;;;12.27;2.55;;;3.80;99.90;;;;;;7321686;32;20258;-57
2022/04/09 01:17:55;;;;;;;15.00;2.87;;;3.90;99.90;;;;;;7319965;32;20126;-57
2022/04/09 01:21:59;;;;;;;13.45;3.55;;;3.90;99.90;;;;;;7320445;32;20130;-58
2022/04/09 01:26:03;;;;;;;8.43;2.20;;;3.90;99.90;;;;;;7319802;32;20221;-60
2022/04/09 01:30:06;;;;;;;11.98;2.35;;;4.00;99.90;;;;;;7318442;32;20169;-59
2022/04/09 01:34:09;;;;;;;9.65;2.60;;;3.90;99.90;;;;;;7314200;32;20111;-59
2022/04/09 01:38:11;;;;;;;6.82;2.00;;;3.80;99.90;;;;;;7319242;32;20107;-59
2022/04/09 01:42:13;;;;;;;11.35;2.70;;;3.80;99.90;;;;;;7315343;32;20678;-59
2022/04/09 01:46:15;;;;;;;13.50;2.58;;;3.80;99.90;;;;;;7312602;32;20126;-58
2022/04/09 01:50:17;;;;;;;10.50;2.67;;;3.90;99.90;;;;;;7315198;32;20206;-59
2022/04/09 01:54:18;;;;;;;13.57;3.20;;;4.00;99.90;;;;;;7316131;32;20698;-58
2022/04/09 01:58:20;;;;;;;9.95;1.87;;;4.00;99.90;;;;;;7316380;32;20104;-59
2022/04/09 02:02:22;;;;;;;12.27;2.20;;;4.10;99.90;;;;;;7318341;32;20194;-58
2022/04/09 02:06:24;;;;;;;14.82;2.45;;;4.10;99.90;;;;;;7316902;32;20255;-58
2022/04/09 02:10:27;;;;;;;16.35;2.20;;;4.00;99.90;;;;;;7314255;32;20188;-58
2022/04/09 02:14:29;;;;;;;8.88;2.30;;;4.00;99.90;;;;;;7312950;32;20135;-59
2022/04/09 02:18:31;;;;;;;15.65;2.42;;;4.00;99.90;;;;;;7302573;32;20099;-58
2022/04/09 02:22:37;;;;;;;13.73;2.78;;;4.00;99.90;;;;;;7315347;32;20322;-59
2022/04/09 02:26:38;;;;;;;9.67;2.30;;;3.90;99.90;;;;;;7315841;32;20116;-58
2022/04/09 02:30:40;;;;;;;10.20;2.05;;;3.90;99.90;;;;;;7316111;32;20782;-60
2022/04/09 02:34:42;;;;;;;14.25;2.60;;;4.00;99.90;;;;;;7317134;32;20642;-58
2022/04/09 02:38:43;;;;;;;13.90;2.00;;;4.00;99.90;;;;;;7316873;32;20627;-59
2022/04/09 02:42:46;;;;;;;12.50;2.03;;;4.10;99.90;;;;;;7313937;32;20143;-58
2022/04/09 02:46:48;;;;;;;9.23;1.85;;;4.00;99.90;;;;;;7314366;32;20191;-59
2022/04/09 02:50:49;;;;;;;15.88;2.40;;;4.00;99.90;;;;;;7317977;32;20126;-60
2022/04/09 02:54:51;;;;;;;12.07;2.70;;;3.90;99.90;;;;;;7315697;32;20261;-59
2022/04/09 02:58:53;;;;;;;13.13;2.08;;;3.90;99.90;;;;;;7314248;32;20650;-59
2022/04/09 03:02:54;;;;;;;15.27;2.97;;;3.90;99.90;;;;;;7317645;32;20478;-58
2022/04/09 03:06:56;;;;;;;16.00;2.47;;;3.80;99.90;;;;;;7315023;32;20238;-59
2022/04/09 03:10:58;;;;;;;7.70;2.25;;;3.80;99.90;;;;;;7315736;32;20137;-60
2022/04/09 03:14:59;;;;;;;13.07;3.00;;;3.80;99.90;;;;;;7315133;32;20164;-59
2022/04/09 03:19:02;;;;;;;12.73;2.15;;;3.80;99.90;;;;;;7321664;32;20750;-59
2022/04/09 03:23:04;;;;;;;7.75;1.92;;;3.80;99.90;;;;;;7322934;32;20649;-59
2022/04/09 03:27:06;;;;;;;15.02;2.58;;;3.80;99.90;;;;;;7319649;32;20108;-59
2022/04/09 03:31:09;;;;;;;11.95;2.78;;;3.90;99.90;;;;;;7321020;32;20694;-59
2022/04/09 03:35:11;;;;;;;14.70;2.90;;;3.90;99.90;;;;;;7321482;32;20104;-59
2022/04/09 03:39:13;;;;;;;11.23;1.98;;;3.90;99.90;;;;;;7322105;32;20127;-59
2022/04/09 03:43:15;;;;;;;11.63;2.33;;;4.00;99.90;;;;;;7322119;32;20250;-59
2022/04/09 03:47:16;;;;;;;8.95;2.17;;;4.00;99.90;;;;;;7319880;32;20527;-60
2022/04/09 03:51:18;;;;;;;15.85;2.45;;;4.10;99.90;;;;;;7321142;32;20243;-59
2022/04/09 03:55:20;;;;;;;12.35;2.87;;;4.10;99.90;;;;;;7321758;32;20491;-59
2022/04/09 03:59:22;;;;;;;12.90;2.37;;;4.10;99.90;;;;;;7321822;32;20104;-59
2022/04/09 04:03:25;;;;;;;11.07;2.12;;;4.10;99.90;;;;;;7314164;32;20221;-59
2022/04/09 04:07:27;;;;;;;12.55;2.55;;;4.00;99.90;;;;;;7321445;32;20230;-59
2022/04/09 04:11:28;;;;;;;15.00;2.67;;;4.10;99.90;;;;;;7320348;32;20401;-59
2022/04/09 04:15:30;;;;;;;13.18;2.30;;;4.00;99.90;;;;;;7317662;32;20191;-60
2022/04/09 04:19:32;;;;;;;12.55;1.92;;;4.00;99.90;;;;;;7319465;32;20226;-59
2022/04/09 04:23:34;;;;;;;9.10;2.30;;;4.00;99.90;;;;;;7315783;32;20695;-59
2022/04/09 04:27:43;;;;;;;15.73;2.40;;;4.00;99.90;;;;;;7321999;32;20130;-59
2022/04/09 04:31:45;;;;;;;19.15;2.75;;;4.00;99.90;;;;;;7315224;32;20523;-58
2022/04/09 04:35:47;;;;;;;9.18;2.30;;;3.90;99.90;;;;;;7317778;32;20230;-60
2022/04/09 04:39:49;;;;;;;13.73;2.83;;;4.00;99.90;;;;;;7319593;32;20182;-59
2022/04/09 04:43:52;;;;;;;19.20;3.03;;;4.00;99.90;;;;;;7319890;32;20410;-59
2022/04/09 04:47:54;;;;;;;15.50;2.87;;;4.10;99.90;;;;;;7320904;32;20594;-59
2022/04/09 04:51:55;;;;;;;11.40;2.87;;;4.10;99.90;;;;;;7316575;32;20185;-58
2022/04/09 04:55:57;;;;;;;11.80;2.42;;;4.00;99.90;;;;;;7310111;32;20151;-60
2022/04/09 04:59:59;;;;;;;13.90;2.60;;;4.10;99.90;;;;;;7317174;32;20524;-59
2022/04/09 05:04:02;;;;;;;15.73;2.47;;;4.10;99.90;;;;;;7315428;32;21027;-59
2022/04/09 05:08:04;;;;;;;16.98;2.87;;;4.10;99.90;;;;;;7315700;32;20324;-60
2022/04/09 05:12:06;;;;;;;16.55;3.33;;;4.20;99.90;;;;;;7315677;32;20655;-59
2022/04/09 05:16:08;;;;;;;12.27;2.95;;;4.10;99.90;;;;;;7312929;32;20111;-59
2022/04/09 05:20:15;;;;;;;12.43;2.55;;;4.20;99.90;;;;;;7317979;32;20114;-58
2022/04/09 05:24:16;;;;;;;11.63;2.08;;;4.30;99.90;;;;;;7318790;32;20115;-58
2022/04/09 05:28:18;;;;;;;8.65;2.33;;;4.30;99.90;;;;;;7313884;32;20253;-58
2022/04/09 05:32:19;;;;;;;13.40;2.40;;;4.30;99.90;;;;;;7313071;32;20495;-60
2022/04/09 05:36:21;;;;;;;10.25;2.37;;;4.40;99.90;;;;;;7313913;32;20126;-59
2022/04/09 05:40:23;;;;;;;9.95;2.28;;;4.50;99.90;;;;;;7309805;32;20108;-59
2022/04/09 05:44:24;;;;;;;17.20;2.78;;;4.50;99.90;;;;;;7314082;32;20237;-59
2022/04/09 05:48:26;;;;;;;18.98;3.25;;;4.50;99.90;;;;;;7316740;32;20142;-59
2022/04/09 05:52:28;;;;;;;15.90;3.55;;;4.40;99.90;;;;;;7315880;32;20210;-60
2022/04/09 05:56:30;;;;;;;11.35;2.22;;;4.40;99.90;;;;;;7314783;32;20115;-61
2022/04/09 06:00:32;;;;;;;17.50;3.05;;;4.50;99.90;;;;;;7315988;32;20768;-60
2022/04/09 06:04:34;;;;;;;13.90;2.62;;;4.40;99.90;;;;;;7315413;32;20928;-62
2022/04/09 06:08:36;;;;;;;13.40;2.97;;;4.40;99.90;;;;;;7317168;32;20515;-61
2022/04/09 06:12:37;;;;;;;13.88;2.78;;;4.50;99.90;;;;;;7313070;32;20146;-61
2022/04/09 06:16:40;;;;;;;19.65;3.35;;;4.70;99.90;;;;;;7317156;32;20669;-61
2022/04/09 06:20:42;;;;;;;15.00;2.90;;;4.70;99.90;;;;;;7313476;32;20201;-61
2022/04/09 06:24:44;;;;;;;15.20;3.17;;;4.90;99.90;;;;;;7313186;32;20430;-60
2022/04/09 06:28:46;;;;;;;12.30;3.12;;;5.00;99.90;;;;;;7310021;32;20126;-60
2022/04/09 06:32:48;;;;;;;11.93;3.20;;;5.00;99.90;;;;;;7308352;32;20198;-60
2022/04/09 06:36:49;;;;;;;12.37;2.70;;;4.90;99.90;;;;;;7312980;32;20206;-61
2022/04/09 06:40:51;;;;;;;14.73;2.95;;;4.90;99.90;;;;;;7316332;32;20131;-60
2022/04/09 06:44:52;;;;;;;13.90;2.50;;;5.00;99.90;;;;;;7312756;32;20126;-60
2022/04/09 06:48:54;;;;;;;12.23;3.03;;;5.00;99.90;;;;;;7312450;32;20226;-59
2022/04/09 06:52:56;;;;;;;17.92;2.90;;;5.10;99.90;;;;;;7320189;32;20238;-59
2022/04/09 06:56:59;;;;;;;13.48;2.35;;;5.30;99.90;;;;;;7320792;32;20304;-60
2022/04/09 07:01:02;;;;;;;10.77;2.00;;;5.40;99.90;;;;;;7320784;32;20135;-61
2022/04/09 07:05:04;;;;;;;11.95;3.22;;;5.50;99.90;;;;;;7321107;32;20180;-60
2022/04/09 07:09:06;;;;;;;17.23;2.97;;;5.60;99.90;;;;;;7317331;32;20237;-59
2022/04/09 07:13:08;;;;;;;14.93;2.67;;;5.80;99.90;;;;;;7322266;32;20116;-60
2022/04/09 07:17:11;;;;;;;16.17;3.67;;;5.70;99.90;;;;;;7319393;32;20241;-59
2022/04/09 07:21:12;;;;;;;13.80;2.40;;;5.80;99.90;;;;;;7318400;32;20221;-59
2022/04/09 07:25:16;;;;;;;8.40;2.25;;;6.00;99.90;;;;;;7319644;32;20221;-60
2022/04/09 07:29:18;;;;;;;14.07;2.20;;;6.10;99.90;;;;;;7319286;32;20191;-60
2022/04/09 07:33:20;;;;;;;11.30;2.15;;;6.30;99.90;;;;;;7318644;32;20111;-59
2022/04/09 07:37:26;;;;;;;14.13;2.50;;;6.40;99.90;;;;;;7317360;32;20141;-60
2022/04/09 07:41:28;;;;;;;15.82;2.15;;;6.50;99.90;;;;;;7317771;32;20135;-60
2022/04/09 07:45:30;;;;;;;12.77;2.20;;;6.60;99.90;;;;;;7320002;32;20165;-60
2022/04/09 07:49:31;;;;;;;10.40;2.65;;;6.80;99.90;;;;;;7320719;32;20112;-60
2022/04/09 07:53:33;;;;;;;8.93;2.08;;;6.80;99.90;;;;;;7317141;32;20657;-61
2022/04/09 07:57:35;;;;;;;14.65;2.62;;;6.50;99.90;;;;;;7319726;32;20169;-57
2022/04/09 08:01:37;;;;;;;17.52;3.20;;;7.30;99.90;;;;;;7316305;32;20161;-57
2022/04/09 08:05:39;;;;;;;13.95;2.37;;;7.80;99.90;;;;;;7314604;32;20265;-60
2022/04/09 08:09:43;;;;;;;10.93;2.53;;;7.60;99.90;;;;;;7315232;32;20175;-59
2022/04/09 08:13:45;;;;;;;8.75;2.20;;;8.00;99.90;;;;;;7314267;32;20203;-60
2022/04/09 08:17:47;;;;;;;11.00;2.30;;;8.60;99.90;;;;;;7314767;32;20141;-61
2022/04/09 08:21:49;;;;;;;15.05;1.87;;;8.40;99.90;;;;;;7317543;32;20288;-60
2022/04/09 08:25:51;;;;;;;14.23;2.00;;;8.10;99.90;;;;;;7320312;32;20219;-60
2022/04/09 08:29:53;;;;;;;10.80;2.12;;;8.40;99.90;;;;;;7323126;32;20149;-60
2022/04/09 08:33:55;;;;;;;6.85;1.15;;;8.80;99.90;;;;;;7323917;32;20228;-60
2022/04/09 08:37:58;;;;;;;5.30;1.00;;;8.60;99.90;;;;;;7317535;32;20233;-62
2022/04/09 08:42:01;;;;;;;6.32;0.98;;;8.90;99.90;;;;;;7322974;32;20134;-60
2022/04/09 08:46:03;;;;;;;2.95;1.10;;;9.20;99.90;;;;;;7320700;32;20126;-62
2022/04/09 08:50:07;;;;;;;6.47;0.93;;;9.50;99.90;;;;;;7317654;32;20238;-62
2022/04/09 08:54:10;;;;;;;4.28;0.93;;;9.80;99.90;;;;;;7322446;32;20198;-60
2022/04/09 08:58:12;;;;;;;4.93;0.90;;;9.40;99.90;;;;;;7324951;32;20108;-60
2022/04/09 09:02:13;;;;;;;6.43;0.60;;;8.90;99.90;;;;;;7316423;32;20112;-60
2022/04/09 09:06:27;;;;;;;5.20;1.10;;;8.60;99.90;;;;;;7322409;32;20236;-62
2022/04/09 09:10:29;;;;;;;6.82;1.58;;;9.30;99.90;;;;;;7318084;32;20157;-60
2022/04/09 09:14:33;;;;;;;4.53;0.82;;;10.00;99.90;;;;;;7317713;32;20162;-62
2022/04/09 09:18:36;;;;;;;4.45;1.08;;;10.50;99.90;;;;;;7318728;32;20353;-62
2022/04/09 09:22:39;;;;;;;6.22;1.30;;;9.90;99.90;;;;;;7316370;32;20261;-61
2022/04/09 09:26:41;;;;;;;5.68;1.48;;;9.80;99.90;;;;;;7311957;32;20133;-60
2022/04/09 09:30:48;;;;;;;7.40;1.42;;;9.30;99.90;;;;;;7311446;32;20099;-60
2022/04/09 09:34:55;;;;;;;8.00;1.40;;;9.10;99.90;;;;;;7320008;32;20373;-60
2022/04/09 09:39:02;;;;;;;8.70;1.73;;;9.00;99.90;;;;;;7313422;32;20190;-60
2022/04/09 09:43:17;;;;;;;9.98;1.40;;;8.60;99.90;;;;;;7316885;32;20803;-61
2022/04/09 09:47:19;;;;;;;5.93;1.50;;;8.10;99.90;;;;;;7316424;32;20115;-61
2022/04/09 09:51:23;;;;;;;9.07;1.40;;;7.90;99.90;;;;;;7313956;32;20134;-61
2022/04/09 09:55:25;;;;;;;4.70;1.05;;;7.90;99.90;;;;;;7315367;32;20330;-62
2022/04/09 09:59:30;;;;;;;2.53;0.80;;;8.60;99.90;;;;;;7317313;32;20119;-62
2022/04/09 10:03:33;;;;;;;6.10;1.40;;;9.70;99.90;;;;;;7316822;32;20198;-61
2022/04/09 10:07:36;;;;;;;5.03;1.42;;;11.00;99.90;;;;;;7318436;32;20179;-61
2022/04/09 10:11:42;;;;;;;7.12;1.90;;;11.20;99.90;;;;;;7307246;32;20214;-60
2022/04/09 10:15:47;;;;;;;10.15;2.00;;;10.80;99.90;;;;;;7316173;32;20115;-61
2022/04/09 10:19:57;;;;;;;6.60;1.50;;;11.80;99.90;;;;;;7316377;32;20748;-62
2022/04/09 10:24:02;;;;;;;6.30;2.30;;;13.80;99.90;;;;;;7319586;32;20183;-62
2022/04/09 10:28:04;;;;;;;8.25;2.08;;;14.80;99.90;;;;;;7318093;32;20135;-60
2022/04/09 10:32:06;;;;;;;2.83;0.60;;;14.40;95.20;;;;;;7317639;32;20939;-60
2022/04/09 10:36:10;;;;;;;2.65;0.57;;;10.90;99.90;;;;;;7318121;32;20420;-61
2022/04/09 10:40:12;;;;;;;1.12;0.30;;;8.20;99.90;;;;;;7318192;32;20134;-60
2022/04/09 10:44:39;;;;;;;1.92;0.40;;;7.50;99.90;;;;;;7321736;32;20100;-60
2022/04/09 10:48:42;;;;;;;0.98;0.30;;;6.90;99.90;;;;;;7315043;32;20269;-60
2022/04/09 10:52:47;;;;;;;2.55;0.40;;;6.60;99.90;;;;;;7320844;32;20114;-60
2022/04/09 10:56:49;;;;;;;4.00;0.90;;;6.60;99.90;;;;;;7315996;32;20534;-60
2022/04/09 11:00:50;;;;;;;1.73;0.55;;;6.50;99.90;;;;;;7317401;32;20202;-62
2022/04/09 11:04:52;;;;;;;3.15;0.50;;;6.60;99.90;;;;;;7316268;32;20130;-60
2022/04/09 11:08:58;;;;;;;3.65;0.70;;;6.70;99.90;;;;;;7310625;32;20107;-61
2022/04/09 11:13:00;;;;;;;2.22;0.55;;;7.90;99.90;;;;;;7317951;32;20695;-62
2022/04/09 11:17:13;;;;;;;2.70;0.73;;;9.10;99.90;;;;;;7320120;32;20127;-62
2022/04/09 11:21:15;;;;;;;2.50;0.70;;;9.80;99.90;;;;;;7313055;32;20108;-61
2022/04/09 11:25:24;;;;;;;3.58;0.65;;;10.50;99.90;;;;;;7320624;32;20142;-63
2022/04/09 11:29:38;;;;;;;3.12;0.70;;;11.20;99.90;;;;;;7315420;32;20202;-63
2022/04/09 11:33:55;;;;;;;4.68;0.85;;;11.60;99.90;;;;;;7316476;32;20179;-61
2022/04/09 11:37:57;;;;;;;5.20;0.93;;;11.70;99.90;;;;;;7320488;32;20193;-62
2022/04/09 11:41:59;;;;;;;2.53;0.73;;;11.50;99.90;;;;;;7325045;32;20115;-60
2022/04/09 11:46:04;;;;;;;3.62;0.60;;;11.10;95.70;;;;;;7325085;32;20111;-60
2022/04/09 11:50:10;;;;;;;2.08;0.57;;;10.90;95.70;;;;;;7324762;32;21222;-62
2022/04/09 11:54:18;;;;;;;2.03;0.70;;;11.30;95.90;;;;;;7324262;32;20127;-62
2022/04/09 11:58:28;;;;;;;3.33;0.93;;;11.60;97.00;;;;;;7324406;32;20768;-63
2022/04/09 12:02:30;;;;;;;2.67;0.70;;;12.30;94.00;;;;;;7324166;32;20546;-61
2022/04/09 12:06:32;;;;;;;2.72;0.60;;;11.50;91.40;;;;;;7317074;32;20194;-60
2022/04/09 12:10:34;;;;;;;2.03;0.50;;;11.20;93.90;;;;;;7315659;32;20130;-60
2022/04/09 12:14:36;;;;;;;5.82;0.90;;;11.30;92.10;;;;;;7318065;32;20208;-60
2022/04/09 12:18:38;;;;;;;4.35;0.70;;;10.50;92.90;;;;;;7318217;32;20362;-62
2022/04/09 12:22:40;;;;;;;2.33;0.98;;;10.40;96.00;;;;;;7318635;32;20130;-62
2022/04/09 12:26:44;;;;;;;3.37;1.00;;;10.60;99.90;;;;;;7322224;32;20138;-60
2022/04/09 12:30:47;;;;;;;2.28;0.75;;;10.80;97.80;;;;;;7321283;32;20208;-60
2022/04/09 12:35:03;;;;;;;1.87;0.60;;;10.20;98.40;;;;;;7320880;32;20487;-60
2022/04/09 12:39:24;;;;;;;3.75;0.65;;;9.50;99.90;;;;;;7317071;32;20163;-61
2022/04/09 12:43:40;;;;;;;2.72;0.80;;;8.90;99.90;;;;;;7314922;32;20190;-59
2022/04/09 12:47:53;;;;;;;3.28;0.55;;;9.50;99.90;;;;;;7327471;32;20139;-59
2022/04/09 12:51:56;;;;;;;2.78;0.80;;;10.00;99.90;;;;;;7317296;32;20130;-60
2022/04/09 12:55:58;;;;;;;4.70;0.90;;;10.20;99.90;;;;;;7319807;32;20108;-60
2022/04/09 12:59:59;;;;;;;2.10;1.12;;;10.50;99.90;;;;;;7315988;32;20242;-60
2022/04/09 13:04:01;;;;;;;5.90;1.12;;;10.90;99.90;;;;;;7314820;32;20111;-60
2022/04/09 13:08:03;;;;;;;4.12;1.30;;;11.30;98.60;;;;;;7319942;32;20144;-60
2022/04/09 13:12:09;;;;;;;5.68;1.00;;;11.20;98.20;;;;;;7319306;32;20187;-61
2022/04/09 13:16:11;;;;;;;3.97;1.17;;;10.90;98.70;;;;;;7317567;32;20413;-59
2022/04/09 13:20:13;;;;;;;4.60;0.88;;;10.50;99.80;;;;;;7323298;32;20561;-60
2022/04/09 13:24:15;;;;;;;3.92;1.02;;;10.60;99.90;;;;;;7323883;32;20119;-59
2022/04/09 13:28:16;;;;;;;4.65;0.77;;;10.30;97.40;;;;;;7323684;32;20107;-60
2022/04/09 13:32:18;;;;;;;2.00;0.85;;;10.50;99.00;;;;;;7323603;32;20107;-60
2022/04/09 13:36:20;;;;;;;3.75;0.77;;;10.70;98.90;;;;;;7318734;32;20756;-61
2022/04/09 13:40:22;;;;;;;4.20;0.80;;;11.00;92.80;;;;;;7322191;32;20116;-60
2022/04/09 13:44:23;;;;;;;2.15;0.90;;;11.10;98.70;;;;;;7323222;32;20138;-61
2022/04/09 13:48:25;;;;;;;1.52;0.75;;;11.20;99.90;;;;;;7321090;32;20272;-60
2022/04/09 13:52:27;;;;;;;1.30;0.43;;;11.20;99.90;;;;;;7320775;32;20111;-62
2022/04/09 13:56:29;;;;;;;1.45;0.50;;;11.00;99.90;;;;;;7322734;32;20108;-60
2022/04/09 14:00:36;;;;;;;2.50;0.55;;;10.80;99.90;;;;;;7322428;32;20714;-60
2022/04/09 14:04:37;;;;;;;4.55;0.95;;;10.50;99.90;;;;;;7322388;32;20176;-61
2022/04/09 14:08:39;;;;;;;2.60;0.57;;;10.50;99.90;;;;;;7322893;32;20426;-61
2022/04/09 14:12:41;;;;;;;2.85;0.70;;;10.50;99.90;;;;;;7321959;32;20135;-60
2022/04/09 14:16:43;;;;;;;6.40;0.85;;;10.20;99.90;;;;;;7322679;32;20250;-61
2022/04/09 14:20:45;;;;;;;4.40;1.05;;;10.00;99.90;;;;;;7322614;32;20224;-60
2022/04/09 14:24:46;;;;;;;4.07;1.05;;;10.10;99.90;;;;;;7322186;32;20112;-60
2022/04/09 14:28:48;;;;;;;2.95;1.17;;;10.70;99.90;;;;;;7322679;32;20111;-61
2022/04/09 14:32:50;;;;;;;4.10;1.23;;;10.90;99.90;;;;;;7332092;32;20161;-61
2022/04/09 14:36:51;;;;;;;4.78;0.82;;;11.10;97.80;;;;;;7322277;32;20154;-61
2022/04/09 14:40:53;;;;;;;3.50;1.15;;;11.30;95.90;;;;;;7321836;32;20134;-61
2022/04/09 14:44:55;;;;;;;3.58;1.23;;;11.30;95.70;;;;;;7322517;32;20725;-61
2022/04/09 14:48:57;;;;;;;3.40;0.55;;;11.20;93.60;;;;;;7317469;32;20108;-61
2022/04/09 14:52:59;;;;;;;5.12;1.50;;;11.10;93.00;;;;;;7322126;32;20112;-61
2022/04/09 14:57:01;;;;;;;3.70;0.50;;;10.80;93.90;;;;;;7322248;32;20764;-61
2022/04/09 15:01:03;;;;;;;2.67;0.75;;;10.60;95.80;;;;;;7322118;32;20111;-60
2022/04/09 15:05:07;;;;;;;6.00;1.25;;;10.50;96.90;;;;;;7322095;32;20115;-60
2022/04/09 15:09:08;;;;;;;5.20;0.95;;;9.90;98.20;;;;;;7314391;32;20245;-59
2022/04/09 15:13:11;;;;;;;4.95;0.93;;;9.90;98.30;;;;;;7317608;32;20112;-60
2022/04/09 15:17:12;;;;;;;4.07;0.98;;;9.90;99.60;;;;;;7320785;32;20219;-61
2022/04/09 15:21:14;;;;;;;4.75;0.80;;;10.10;98.10;;;;;;7323126;32;20111;-60
2022/04/09 15:25:17;;;;;;;3.47;1.02;;;10.00;96.90;;;;;;7323810;32;20294;-61
2022/04/09 15:29:23;;;;;;;3.17;1.02;;;9.80;97.10;;;;;;7319953;32;20130;-60
2022/04/09 15:33:25;;;;;;;3.90;0.80;;;9.90;98.00;;;;;;7312937;32;20261;-59
2022/04/09 15:37:27;;;;;;;5.68;0.90;;;9.80;98.40;;;;;;7319075;32;20111;-60
2022/04/09 15:41:29;;;;;;;5.70;1.60;;;9.90;99.40;;;;;;7318425;32;20199;-59
2022/04/09 15:45:30;;;;;;;5.03;1.17;;;9.80;98.20;;;;;;7317519;32;20115;-59
2022/04/09 15:49:33;;;;;;;3.28;0.80;;;9.50;99.90;;;;;;7319934;32;20141;-60
2022/04/09 15:53:35;;;;;;;9.60;1.58;;;9.10;99.90;;;;;;7312214;32;20130;-60
2022/04/09 15:57:37;;;;;;;8.27;0.90;;;8.90;99.90;;;;;;7316295;32;20223;-63
2022/04/09 16:01:39;;;;;;;4.12;1.30;;;8.90;99.90;;;;;;7320771;32;20236;-60
2022/04/09 16:05:41;;;;;;;3.87;1.10;;;8.80;99.90;;;;;;7322168;32;20296;-61
2022/04/09 16:09:43;;;;;;;4.68;1.20;;;8.80;99.90;;;;;;7322151;32;20115;-60
2022/04/09 16:13:44;;;;;;;4.00;1.17;;;8.90;99.90;;;;;;7315697;32;20241;-60
2022/04/09 16:17:46;;;;;;;5.78;1.30;;;9.00;99.90;;;;;;7320012;32;20198;-60
2022/04/09 16:21:49;;;;;;;3.67;0.80;;;9.00;99.90;;;;;;7314549;32;20127;-60
2022/04/09 16:25:52;;;;;;;3.83;0.88;;;9.00;99.90;;;;;;7322711;32;20134;-60
2022/04/09 16:29:54;;;;;;;3.87;0.93;;;9.20;99.90;;;;;;7323463;32;20705;-60
2022/04/09 16:33:56;;;;;;;3.25;0.80;;;9.10;99.90;;;;;;7323416;32;20607;-57
2022/04/09 16:37:58;;;;;;;3.12;0.70;;;9.00;99.90;;;;;;7324241;32;20526;-61
2022/04/09 16:41:59;;;;;;;3.12;1.10;;;9.00;99.90;;;;;;7324475;32;20112;-60
2022/04/09 16:46:03;;;;;;;4.80;1.10;;;9.10;99.90;;;;;;7323050;32;20108;-60
2022/04/09 16:50:05;;;;;;;3.92;1.05;;;9.00;99.90;;;;;;7318934;32;20778;-57
2022/04/09 16:54:07;;;;;;;3.90;1.05;;;9.00;99.90;;;;;;7323152;32;20648;-60
2022/04/09 16:58:09;;;;;;;5.47;1.00;;;8.90;99.90;;;;;;7323272;32;20448;-60
2022/04/09 17:02:11;;;;;;;5.93;1.33;;;8.90;99.90;;;;;;7323149;32;20599;-61
2022/04/09 17:06:13;;;;;;;5.53;1.20;;;8.80;99.90;;;;;;7323990;32;20111;-61
2022/04/09 17:10:15;;;;;;;4.32;1.05;;;8.70;99.90;;;;;;7323494;32;20585;-60
2022/04/09 17:14:17;;;;;;;4.78;1.40;;;8.50;99.90;;;;;;7321856;32;20951;-57
2022/04/09 17:18:19;;;;;;;5.07;1.10;;;8.30;99.90;;;;;;7323234;32;20492;-59
2022/04/09 17:22:20;;;;;;;6.53;1.52;;;8.20;99.90;;;;;;7318109;32;20235;-60
2022/04/09 17:26:22;;;;;;;5.60;1.20;;;8.30;99.90;;;;;;7317482;32;20873;-60
2022/04/09 17:30:24;;;;;;;6.18;1.30;;;8.20;99.90;;;;;;7315565;32;20222;-60
2022/04/09 17:34:27;;;;;;;7.87;1.73;;;8.20;99.90;;;;;;7318383;32;20100;-62
2022/04/09 17:38:29;;;;;;;7.12;1.83;;;8.10;99.90;;;;;;7319668;32;20201;-61
2022/04/09 17:42:30;;;;;;;6.28;1.55;;;8.00;99.90;;;;;;7318113;32;20126;-61
2022/04/09 17:46:32;;;;;;;4.75;1.45;;;7.90;99.90;;;;;;7316832;32;20217;-61
2022/04/09 17:50:34;;;;;;;7.65;1.25;;;7.90;99.90;;;;;;7320340;32;20157;-61
2022/04/09 17:54:35;;;;;;;5.15;1.15;;;7.90;99.90;;;;;;7316862;32;20126;-61
2022/04/09 17:58:41;;;;;;;4.00;1.45;;;7.80;99.90;;;;;;7314977;32;20937;-63
2022/04/09 18:02:42;;;;;;;4.50;0.85;;;7.70;99.90;;;;;;7319286;32;20178;-61
2022/04/09 18:06:48;;;;;;;4.47;1.23;;;7.80;99.90;;;;;;7316461;32;20107;-63
2022/04/09 18:10:50;;;;;;;6.22;1.62;;;7.60;99.90;;;;;;7314300;32;20134;-57
2022/04/09 18:14:52;;;;;;;8.02;1.90;;;7.50;99.90;;;;;;7318481;32;20150;-63
2022/04/09 18:18:57;;;;;;;6.78;1.20;;;7.40;99.90;;;;;;7318207;32;20542;-60
2022/04/09 18:22:59;;;;;;;5.75;1.20;;;7.50;99.90;;;;;;7311363;32;20741;-61
2022/04/09 18:27:01;;;;;;;5.22;1.10;;;7.40;99.90;;;;;;7311307;32;20166;-62
2022/04/09 18:31:03;;;;;;;6.57;1.35;;;7.40;99.90;;;;;;7320323;32;20110;-61
2022/04/09 18:35:05;;;;;;;5.00;1.27;;;7.30;99.90;;;;;;7317754;32;20111;-60
2022/04/09 18:39:08;;;;;;;4.43;1.42;;;7.20;99.90;;;;;;7307192;32;20843;-59
2022/04/09 18:43:10;;;;;;;8.07;1.73;;;6.80;99.90;;;;;;7317563;32;20112;-60
2022/04/09 18:47:12;;;;;;;8.18;2.60;;;6.10;99.90;;;;;;7318729;32;20112;-60
2022/04/09 18:51:14;;;;;;;5.40;2.65;;;5.70;99.90;;;;;;7318406;32;20134;-60
2022/04/09 18:55:16;;;;;;;4.70;1.90;;;5.70;99.90;;;;;;7322745;32;20699;-60
2022/04/09 18:59:18;;;;;;;4.20;1.70;;;5.40;99.90;;;;;;7321088;32;20468;-62
2022/04/09 19:03:22;;;;;;;7.07;1.73;;;5.30;99.90;;;;;;7319669;32;20118;-60
2022/04/09 19:07:23;;;;;;;5.15;1.60;;;5.30;99.90;;;;;;7321872;32;20202;-61
2022/04/09 19:11:25;;;;;;;7.20;1.65;;;5.30;99.90;;;;;;7321169;32;20219;-61
2022/04/09 19:15:27;;;;;;;4.70;1.65;;;5.30;99.90;;;;;;7318431;32;20205;-60
2022/04/09 19:19:34;;;;;;;7.03;2.42;;;5.20;99.90;;;;;;7315330;32;20249;-62
2022/04/09 19:23:37;;;;;;;3.75;1.80;;;5.00;99.90;;;;;;7317838;32;20111;-60
2022/04/09 19:27:39;;;;;;;3.10;1.20;;;5.00;99.90;;;;;;7312731;32;20108;-61
2022/04/09 19:31:40;;;;;;;6.60;2.42;;;4.90;99.90;;;;;;7323128;32;20140;-61
2022/04/09 19:35:42;;;;;;;5.20;1.58;;;4.80;99.90;;;;;;7324168;32;20111;-61
2022/04/09 19:39:45;;;;;;;5.85;1.55;;;4.60;99.90;;;;;;7321291;32;20145;-61
2022/04/09 19:43:47;;;;;;;5.80;1.40;;;4.60;99.90;;;;;;7316611;32;20214;-62
2022/04/09 19:47:51;;;;;;;4.20;1.70;;;4.50;99.90;;;;;;7319359;32;20378;-60
2022/04/09 19:51:52;;;;;;;9.07;1.60;;;4.40;99.90;;;;;;7317072;32;20182;-60
2022/04/09 19:55:54;;;;;;;5.03;1.70;;;4.40;99.90;;;;;;7313878;32;20214;-59
2022/04/09 19:59:56;;;;;;;5.47;1.92;;;4.40;99.90;;;;;;7315889;32;20115;-58
2022/04/09 20:03:58;;;;;;;5.95;2.03;;;4.30;99.90;;;;;;7320888;32;20430;-62
2022/04/09 20:08:00;;;;;;;6.97;2.20;;;4.20;99.90;;;;;;7321116;32;20130;-60
2022/04/09 20:12:02;;;;;;;7.12;2.80;;;4.10;99.90;;;;;;7318013;32;20141;-62
2022/04/09 20:16:05;;;;;;;6.87;2.65;;;4.10;99.90;;;;;;7317904;32;20509;-61
2022/04/09 20:20:08;;;;;;;8.05;2.62;;;4.00;99.90;;;;;;7321312;32;20221;-61
2022/04/09 20:24:10;;;;;;;4.15;2.42;;;4.00;99.90;;;;;;7321097;32;20108;-62
2022/04/09 20:28:12;;;;;;;8.15;2.60;;;4.00;99.90;;;;;;7310068;32;20141;-61
2022/04/09 20:32:13;;;;;;;6.90;2.17;;;4.00;99.90;;;;;;7314567;32;20431;-62
2022/04/09 20:36:15;;;;;;;4.65;2.47;;;4.00;99.90;;;;;;7321818;32;20171;-62
2022/04/09 20:40:17;;;;;;;4.78;2.42;;;3.90;99.90;;;;;;7320085;32;20423;-62
2022/04/09 20:44:18;;;;;;;4.43;1.80;;;3.90;99.90;;;;;;7321511;32;20131;-61
2022/04/09 20:48:20;;;;;;;4.05;2.25;;;3.90;99.90;;;;;;7319527;32;20515;-63
2022/04/09 20:52:22;;;;;;;5.50;2.10;;;3.80;99.90;;;;;;7321613;32;20134;-61
2022/04/09 20:56:24;;;;;;;6.80;2.50;;;3.80;99.90;;;;;;7313794;32;20138;-62
2022/04/09 21:00:25;;;;;;;4.60;1.65;;;3.80;99.90;;;;;;7314833;32;20820;-61
2022/04/09 21:04:28;;;;;;;6.15;2.60;;;3.80;99.90;;;;;;7319842;32;20190;-63
2022/04/09 21:08:29;;;;;;;8.38;2.08;;;3.80;99.90;;;;;;7319514;32;20175;-61
2022/04/09 21:12:31;;;;;;;4.97;1.90;;;3.70;99.90;;;;;;7310146;32;20242;-59